createdAt,value
2019-02-16T00:00:37.729Z,13.72
2019-02-16T00:03:07.017Z,14.87
2019-02-16T00:05:36.429Z,15.80
2019-02-16T00:08:05.748Z,17.90
2019-02-16T00:10:35.040Z,15.23
2019-02-16T00:13:05.280Z,14.50
2019-02-16T00:15:34.646Z,12.50
2019-02-16T00:18:04.159Z,10.87
2019-02-16T00:20:33.422Z,12.93
2019-02-16T00:23:02.865Z,13.87
2019-02-16T00:25:32.139Z,11.80
2019-02-16T00:28:01.401Z,11.57
2019-02-16T00:30:30.698Z,12.33
2019-02-16T00:32:59.971Z,14.07
2019-02-16T00:35:29.325Z,12.50
2019-02-16T00:37:58.585Z,9.90
2019-02-16T00:40:27.787Z,10.77
2019-02-16T00:42:57.141Z,12.33
2019-02-16T00:45:26.567Z,10.43
2019-02-16T00:47:55.830Z,12.77
2019-02-16T00:50:25.137Z,17.03
2019-02-16T00:52:54.438Z,16.07
2019-02-16T00:55:23.750Z,14.33
2019-02-16T00:57:53.147Z,12.10
2019-02-16T01:00:22.422Z,15.77
2019-02-16T01:02:51.762Z,13.50
2019-02-16T01:05:20.963Z,12.57
2019-02-16T01:07:50.318Z,14.50
2019-02-16T01:10:19.645Z,18.90
2019-02-16T01:12:49.120Z,13.47
2019-02-16T01:15:18.385Z,14.40
2019-02-16T01:17:47.677Z,13.80
2019-02-16T01:20:16.877Z,15.23
2019-02-16T01:22:46.548Z,12.93
2019-02-16T01:25:15.840Z,13.43
2019-02-16T01:27:45.116Z,16.10
2019-02-16T01:30:14.426Z,15.23
2019-02-16T01:32:43.735Z,13.23
2019-02-16T01:35:13.056Z,13.03
2019-02-16T01:37:42.372Z,13.07
2019-02-16T01:40:13.041Z,14.67
2019-02-16T01:42:42.336Z,13.60
2019-02-16T01:45:12.034Z,13.77
2019-02-16T01:47:41.366Z,13.97
2019-02-16T01:50:10.750Z,11.97
2019-02-16T01:52:40.039Z,13.33
2019-02-16T01:55:10.814Z,11.90
2019-02-16T01:57:40.258Z,12.60
2019-02-16T02:00:10.992Z,10.90
2019-02-16T02:02:40.313Z,13.13
2019-02-16T02:05:09.711Z,12.20
2019-02-16T02:07:39.074Z,11.77
2019-02-16T02:10:09.462Z,11.83
2019-02-16T02:12:38.750Z,10.77
2019-02-16T02:15:08.895Z,10.93
2019-02-16T02:17:38.180Z,14.70
2019-02-16T02:20:07.911Z,15.70
2019-02-16T02:22:37.327Z,11.07
2019-02-16T02:25:08.567Z,11.50
2019-02-16T02:27:37.926Z,13.27
2019-02-16T02:30:08.197Z,11.57
2019-02-16T02:32:37.478Z,14.53
2019-02-16T02:35:07.639Z,10.73
2019-02-16T02:37:36.975Z,13.87
2019-02-16T02:40:06.548Z,11.27
2019-02-16T02:42:35.827Z,10.97
2019-02-16T02:45:07.318Z,10.33
2019-02-16T02:47:55.780Z,12.27
2019-02-16T02:50:25.236Z,11.10
2019-02-16T02:52:56.560Z,12.70
2019-02-16T02:55:25.434Z,10.47
2019-02-16T02:57:54.762Z,12.33
2019-02-16T03:00:24.162Z,11.73
2019-02-16T03:02:53.578Z,10.30
2019-02-16T03:05:24.436Z,9.37
2019-02-16T03:07:53.785Z,10.87
2019-02-16T03:10:23.122Z,10.50
2019-02-16T03:12:52.421Z,10.10
2019-02-16T03:15:21.765Z,10.47
2019-02-16T03:17:51.068Z,10.13
2019-02-16T03:20:20.447Z,12.27
2019-02-16T03:23:24.293Z,8.43
2019-02-16T03:26:04.662Z,13.20
2019-02-16T03:28:37.563Z,11.60
2019-02-16T03:31:47.726Z,9.80
2019-02-16T03:34:24.492Z,13.03
2019-02-16T03:37:20.290Z,10.33
2019-02-16T03:39:49.583Z,9.00
2019-02-16T03:42:18.985Z,9.47
2019-02-16T03:44:48.262Z,9.03
2019-02-16T03:47:17.585Z,9.73
2019-02-16T03:49:47.083Z,10.83
2019-02-16T03:52:16.386Z,10.63
2019-02-16T03:54:45.845Z,9.43
2019-02-16T03:57:15.160Z,9.83
2019-02-16T03:59:44.450Z,11.10
2019-02-16T04:02:13.673Z,10.97
2019-02-16T04:04:43.033Z,13.73
2019-02-16T04:07:12.416Z,10.50
2019-02-16T04:09:41.714Z,8.63
2019-02-16T04:12:11.034Z,8.80
2019-02-16T04:14:40.327Z,11.07
2019-02-16T04:17:09.617Z,8.97
2019-02-16T04:19:38.873Z,9.97
2019-02-16T04:22:08.189Z,12.07
2019-02-16T04:24:37.430Z,7.70
2019-02-16T04:27:06.710Z,9.97
2019-02-16T04:29:35.892Z,7.63
2019-02-16T04:32:05.109Z,10.10
2019-02-16T04:34:34.362Z,9.03
2019-02-16T04:37:03.659Z,8.27
2019-02-16T04:39:33.167Z,9.17
2019-02-16T04:42:02.413Z,10.20
2019-02-16T04:44:31.696Z,8.07
2019-02-16T04:47:00.978Z,9.00
2019-02-16T04:49:30.269Z,10.37
2019-02-16T04:51:59.561Z,8.47
2019-02-16T04:54:28.829Z,9.60
2019-02-16T04:56:58.118Z,8.60
2019-02-16T04:59:27.374Z,7.13
2019-02-16T05:01:56.633Z,10.80
2019-02-16T05:04:25.957Z,8.50
2019-02-16T05:06:55.134Z,10.13
2019-02-16T05:09:24.424Z,8.10
2019-02-16T05:11:53.689Z,9.80
2019-02-16T05:14:22.986Z,9.07
2019-02-16T05:16:52.391Z,11.20
2019-02-16T05:19:21.682Z,10.03
2019-02-16T05:21:50.960Z,13.27
2019-02-16T05:24:20.250Z,10.50
2019-02-16T05:26:49.521Z,10.23
2019-02-16T05:29:18.870Z,11.80
2019-02-16T05:31:48.134Z,11.77
2019-02-16T05:34:17.494Z,8.67
2019-02-16T05:36:46.754Z,9.13
2019-02-16T05:39:16.029Z,8.17
2019-02-16T05:41:45.301Z,8.50
2019-02-16T05:44:14.579Z,7.63
2019-02-16T05:46:43.847Z,8.93
2019-02-16T05:49:13.230Z,8.57
2019-02-16T05:51:42.604Z,8.97
2019-02-16T05:54:11.870Z,7.63
2019-02-16T05:56:41.165Z,10.20
2019-02-16T05:59:10.386Z,11.00
2019-02-16T06:01:39.749Z,11.03
2019-02-16T06:04:09.031Z,9.40
2019-02-16T06:06:38.286Z,10.40
2019-02-16T06:09:07.649Z,10.27
2019-02-16T06:11:36.919Z,9.73
2019-02-16T06:14:06.285Z,9.47
2019-02-16T06:16:35.550Z,11.33
2019-02-16T06:19:04.897Z,12.53
2019-02-16T06:21:34.163Z,12.63
2019-02-16T06:24:03.465Z,12.27
2019-02-16T06:26:32.764Z,12.03
2019-02-16T06:29:02.022Z,13.33
2019-02-16T06:31:31.362Z,14.93
2019-02-16T06:34:00.649Z,12.57
2019-02-16T06:36:33.982Z,11.47
2019-02-16T06:39:04.915Z,11.43
2019-02-16T06:41:34.219Z,11.23
2019-02-16T06:44:03.618Z,9.57
2019-02-16T06:46:32.965Z,11.73
2019-02-16T06:49:02.289Z,10.97
2019-02-16T06:51:31.566Z,10.27
2019-02-16T06:54:01.041Z,8.67
2019-02-16T06:56:34.982Z,13.10
2019-02-16T06:59:04.364Z,10.77
2019-02-16T07:01:33.789Z,11.50
2019-02-16T07:04:03.145Z,13.30
2019-02-16T07:06:32.396Z,11.47
2019-02-16T07:09:01.854Z,11.17
2019-02-16T07:11:31.233Z,13.10
2019-02-16T07:14:00.532Z,16.30
2019-02-16T07:16:45.641Z,11.80
2019-02-16T07:19:36.707Z,10.87
2019-02-16T07:22:07.613Z,9.97
2019-02-16T07:24:36.933Z,7.73
2019-02-16T07:27:06.292Z,9.40
2019-02-16T07:29:35.766Z,9.60
2019-02-16T07:32:05.024Z,12.57
2019-02-16T07:34:34.366Z,20.13
2019-02-16T07:37:03.687Z,12.53
2019-02-16T07:39:32.959Z,8.80
2019-02-16T07:42:02.391Z,9.43
2019-02-16T07:44:38.160Z,9.10
2019-02-16T07:47:39.184Z,9.63
2019-02-16T07:50:30.327Z,9.00
2019-02-16T07:53:18.667Z,8.00
2019-02-16T07:55:59.651Z,6.77
2019-02-16T07:58:53.828Z,9.73
2019-02-16T08:01:48.226Z,8.97
2019-02-16T08:04:38.143Z,7.50
2019-02-16T08:07:31.989Z,9.83
2019-02-16T08:10:35.677Z,10.30
2019-02-16T08:13:33.343Z,12.60
2019-02-16T08:16:08.722Z,12.67
2019-02-16T08:19:12.433Z,9.60
2019-02-16T08:21:59.609Z,10.20
2019-02-16T08:24:45.818Z,6.30
2019-02-16T08:27:40.223Z,8.47
2019-02-16T08:30:23.180Z,7.07
2019-02-16T08:33:26.779Z,9.07
2019-02-16T08:36:24.008Z,10.00
2019-02-16T08:39:11.274Z,6.83
2019-02-16T08:42:00.151Z,8.00
2019-02-16T08:45:00.364Z,7.43
2019-02-16T08:48:01.303Z,9.03
2019-02-16T08:51:01.784Z,10.57
2019-02-16T08:53:49.881Z,13.57
2019-02-16T08:56:34.144Z,8.63
2019-02-16T08:59:13.226Z,9.47
2019-02-16T09:02:00.157Z,8.37
2019-02-16T09:04:44.189Z,7.73
2019-02-16T09:07:31.321Z,7.67
2019-02-16T09:10:18.414Z,7.53
2019-02-16T09:13:16.073Z,8.13
2019-02-16T09:16:08.860Z,14.07
2019-02-16T09:19:12.350Z,16.43
2019-02-16T09:21:58.891Z,11.70
2019-02-16T09:24:43.894Z,7.67
2019-02-16T09:27:32.240Z,8.03
2019-02-16T09:30:16.270Z,5.50
2019-02-16T09:32:50.599Z,7.67
2019-02-16T09:35:41.148Z,4.50
2019-02-16T09:38:38.741Z,5.00
2019-02-16T09:41:30.085Z,5.87
2019-02-16T09:44:11.334Z,10.03
2019-02-16T09:47:08.523Z,4.67
2019-02-16T09:50:01.862Z,4.93
2019-02-16T09:52:45.332Z,5.73
2019-02-16T09:55:39.617Z,5.33
2019-02-16T09:58:26.803Z,4.87
2019-02-16T10:01:18.375Z,5.10
2019-02-16T10:03:57.113Z,6.17
2019-02-16T10:06:44.890Z,4.05
2019-02-16T10:09:22.781Z,4.87
2019-02-16T10:12:02.526Z,4.70
2019-02-16T10:14:56.654Z,4.20
2019-02-16T10:17:34.802Z,5.40
2019-02-16T10:20:40.400Z,4.10
2019-02-16T10:23:23.400Z,4.83
2019-02-16T10:26:10.402Z,3.93
2019-02-16T10:28:51.815Z,5.97
2019-02-16T10:31:37.124Z,8.27
2019-02-16T10:34:23.812Z,5.70
2019-02-16T10:37:30.994Z,4.90
2019-02-16T10:40:15.727Z,5.97
2019-02-16T10:42:54.400Z,5.17
2019-02-16T10:45:51.814Z,5.90
2019-02-16T10:48:46.050Z,6.03
2019-02-16T10:51:40.152Z,7.23
2019-02-16T10:54:26.615Z,5.90
2019-02-16T10:57:13.761Z,6.93
2019-02-16T11:00:14.208Z,6.07
2019-02-16T11:03:14.472Z,6.93
2019-02-16T11:05:59.686Z,7.63
2019-02-16T11:08:46.036Z,8.27
2019-02-16T11:11:22.333Z,7.13
2019-02-16T11:14:10.232Z,7.03
2019-02-16T11:16:58.582Z,5.57
2019-02-16T11:20:05.496Z,6.57
2019-02-16T11:22:46.044Z,7.03
2019-02-16T11:25:40.627Z,7.07
2019-02-16T11:28:38.292Z,8.43
2019-02-16T11:31:41.958Z,7.30
2019-02-16T11:34:39.457Z,7.77
2019-02-16T11:37:27.894Z,10.10
2019-02-16T11:40:15.231Z,7.97
2019-02-16T11:42:53.194Z,12.57
2019-02-16T11:45:47.541Z,9.07
2019-02-16T11:48:31.007Z,8.90
2019-02-16T11:51:29.600Z,9.20
2019-02-16T11:54:17.073Z,10.10
2019-02-16T11:56:58.889Z,10.93
2019-02-16T11:59:35.533Z,9.07
2019-02-16T12:02:22.857Z,10.30
2019-02-16T12:05:00.298Z,9.27
2019-02-16T12:07:44.538Z,9.73
2019-02-16T12:10:31.649Z,12.47
2019-02-16T12:13:14.427Z,9.63
2019-02-16T12:15:57.160Z,12.80
2019-02-16T12:18:34.519Z,10.15
2019-02-16T12:21:21.719Z,11.80
2019-02-16T12:24:13.121Z,10.73
2019-02-16T12:26:51.839Z,12.13
2019-02-16T12:29:38.894Z,11.43
2019-02-16T12:32:29.994Z,12.30
2019-02-16T12:35:28.505Z,11.80
2019-02-16T12:38:10.479Z,10.73
2019-02-16T12:41:05.861Z,12.87
2019-02-16T12:43:54.217Z,10.07
2019-02-16T12:46:41.510Z,12.68
2019-02-16T12:49:28.977Z,15.13
2019-02-16T12:52:10.976Z,18.23
2019-02-16T12:54:52.851Z,16.47
2019-02-16T12:57:38.474Z,15.30
2019-02-16T13:00:34.329Z,28.57
2019-02-16T13:03:22.747Z,13.13
2019-02-16T13:06:14.284Z,15.73
2019-02-16T13:09:14.857Z,13.23
2019-02-16T13:11:52.178Z,12.10
2019-02-16T13:14:39.555Z,13.77
2019-02-16T13:17:20.570Z,11.73
2019-02-16T13:20:11.958Z,11.80
2019-02-16T13:22:49.812Z,14.37
2019-02-16T13:25:25.266Z,11.70
2019-02-16T13:28:15.194Z,14.17
2019-02-16T13:31:09.125Z,13.60
2019-02-16T13:33:59.355Z,12.00
2019-02-16T13:36:50.457Z,12.80
2019-02-16T13:39:33.417Z,13.67
2019-02-16T13:42:14.671Z,13.27
2019-02-16T13:45:01.990Z,34.77
2019-02-16T13:47:53.537Z,21.47
2019-02-16T13:50:38.152Z,19.40
2019-02-16T13:53:44.987Z,16.10
2019-02-16T13:56:31.715Z,12.87
2019-02-16T13:59:19.563Z,11.53
2019-02-16T14:02:08.228Z,25.40
2019-02-16T14:04:51.879Z,16.47
2019-02-16T14:07:37.434Z,12.50
2019-02-16T14:10:24.615Z,14.47
2019-02-16T14:13:22.196Z,11.80
2019-02-16T14:16:16.615Z,10.87
2019-02-16T14:18:45.994Z,11.23
2019-02-16T14:21:15.451Z,10.20
2019-02-16T14:23:44.884Z,10.53
2019-02-16T14:26:14.176Z,14.27
2019-02-16T14:28:43.641Z,15.33
2019-02-16T14:31:14.587Z,9.53
2019-02-16T14:33:43.995Z,10.63
2019-02-16T14:36:13.358Z,10.87
2019-02-16T14:38:57.675Z,13.10
2019-02-16T14:41:27.053Z,11.30
2019-02-16T14:43:56.435Z,13.57
2019-02-16T14:46:25.813Z,11.77
2019-02-16T14:48:55.150Z,12.47
2019-02-16T14:51:43.670Z,11.67
2019-02-16T14:54:13.034Z,18.00
2019-02-16T14:56:42.499Z,12.77
2019-02-16T14:59:11.852Z,11.73
2019-02-16T15:01:41.307Z,11.70
2019-02-16T15:04:10.757Z,11.43
2019-02-16T15:06:40.120Z,18.87
2019-02-16T15:09:09.542Z,17.13
2019-02-16T15:11:38.895Z,12.33
2019-02-16T15:14:08.272Z,13.37
2019-02-16T15:16:37.603Z,12.87
2019-02-16T15:19:06.877Z,11.33
2019-02-16T15:21:36.285Z,12.10
2019-02-16T15:24:05.799Z,14.63
2019-02-16T15:26:35.164Z,13.17
2019-02-16T15:29:04.590Z,12.93
2019-02-16T15:31:33.886Z,14.17
2019-02-16T15:34:03.313Z,12.97
2019-02-16T15:36:38.763Z,26.37
2019-02-16T15:39:08.421Z,17.80
2019-02-16T15:41:37.723Z,15.77
2019-02-16T15:44:07.091Z,12.73
2019-02-16T15:46:36.455Z,14.93
2019-02-16T15:49:05.759Z,14.63
2019-02-16T15:51:35.067Z,14.93
2019-02-16T15:54:23.570Z,13.93
2019-02-16T15:56:53.004Z,12.03
2019-02-16T15:59:22.448Z,13.97
2019-02-16T16:01:51.679Z,12.93
2019-02-16T16:04:21.888Z,14.03
2019-02-16T16:06:51.238Z,12.57
2019-02-16T16:09:45.735Z,13.33
2019-02-16T16:12:24.556Z,21.63
2019-02-16T16:15:12.948Z,37.63
2019-02-16T16:17:54.411Z,25.00
2019-02-16T16:20:42.541Z,28.47
2019-02-16T16:23:24.174Z,16.63
2019-02-16T16:26:21.460Z,18.83
2019-02-16T16:29:13.646Z,14.17
2019-02-16T16:31:54.391Z,13.93
2019-02-16T16:34:41.665Z,19.60
2019-02-16T16:37:22.162Z,17.43
2019-02-16T16:40:02.669Z,19.53
2019-02-16T16:42:48.137Z,21.37
2019-02-16T16:45:37.481Z,19.80
2019-02-16T16:48:23.227Z,22.87
2019-02-16T16:51:14.341Z,14.57
2019-02-16T16:54:17.786Z,45.10
2019-02-16T16:57:02.008Z,32.60
2019-02-16T16:59:39.243Z,15.77
2019-02-16T17:02:26.727Z,18.07
2019-02-16T17:05:15.029Z,12.27
2019-02-16T17:07:53.594Z,11.37
2019-02-16T17:10:44.849Z,15.37
2019-02-16T17:13:33.307Z,16.40
2019-02-16T17:16:12.301Z,17.40
2019-02-16T17:19:22.655Z,17.57
2019-02-16T17:22:25.447Z,16.87
2019-02-16T17:25:08.428Z,21.37
2019-02-16T17:27:48.690Z,17.90
2019-02-16T17:30:37.046Z,15.47
2019-02-16T17:33:21.827Z,13.93
2019-02-16T17:36:06.770Z,18.57
2019-02-16T17:39:07.425Z,14.97
2019-02-16T17:41:58.967Z,21.40
2019-02-16T17:45:02.793Z,14.17
2019-02-16T17:47:57.217Z,14.27
2019-02-16T17:50:40.064Z,17.57
2019-02-16T17:53:21.520Z,21.07
2019-02-16T17:56:05.823Z,20.87
2019-02-16T17:58:43.559Z,23.07
2019-02-16T18:01:34.387Z,22.07
2019-02-16T18:04:31.772Z,12.43
2019-02-16T18:07:30.364Z,20.60
2019-02-16T18:10:50.376Z,22.63
2019-02-16T18:13:29.781Z,40.00
2019-02-16T18:16:09.174Z,30.77
2019-02-16T18:19:00.667Z,40.30
2019-02-16T18:21:54.809Z,44.67
2019-02-16T18:24:58.100Z,53.20
2019-02-16T18:28:09.335Z,62.90
2019-02-16T18:30:47.154Z,49.27
2019-02-16T18:33:34.130Z,46.73
2019-02-16T18:36:37.454Z,42.83
2019-02-16T18:39:26.033Z,42.20
2019-02-16T18:45:01.473Z,33.83
2019-02-16T18:47:40.477Z,23.80
2019-02-16T18:50:26.951Z,18.67
2019-02-16T18:53:21.344Z,19.33
2019-02-16T18:55:57.848Z,18.40
2019-02-16T18:58:41.749Z,14.77
2019-02-16T19:01:36.385Z,14.47
2019-02-16T19:04:29.387Z,17.30
2019-02-16T19:07:32.876Z,20.97
2019-02-16T19:10:29.962Z,30.20
2019-02-16T19:13:24.254Z,39.33
2019-02-16T19:16:07.093Z,37.67
2019-02-16T19:18:54.006Z,31.40
2019-02-16T19:21:33.961Z,24.17
2019-02-16T19:24:16.854Z,30.90
2019-02-16T19:27:05.207Z,26.73
2019-02-16T19:30:08.616Z,22.07
2019-02-16T19:32:51.418Z,27.23
2019-02-16T19:35:36.770Z,40.13
2019-02-16T19:38:27.889Z,34.43
2019-02-16T19:41:12.142Z,20.70
2019-02-16T19:43:50.410Z,14.90
2019-02-16T19:46:41.950Z,16.80
2019-02-16T19:49:29.266Z,18.77
2019-02-16T19:52:22.055Z,17.27
2019-02-16T19:55:01.410Z,19.67
2019-02-16T19:57:48.282Z,45.13
2019-02-16T20:00:28.057Z,56.07
2019-02-16T20:03:25.738Z,34.63
2019-02-16T20:06:12.997Z,46.03
2019-02-16T20:09:04.542Z,35.77
2019-02-16T20:11:47.321Z,84.13
2019-02-16T20:14:32.012Z,52.37
2019-02-16T20:17:21.274Z,103.70
2019-02-16T20:20:25.007Z,53.50
2019-02-16T20:23:19.029Z,67.60
2019-02-16T20:26:02.094Z,62.47
2019-02-16T20:28:56.431Z,54.00
2019-02-16T20:31:47.628Z,34.53
2019-02-16T20:34:36.774Z,59.57
2019-02-16T20:37:20.980Z,43.87
2019-02-16T20:40:05.570Z,27.17
2019-02-16T20:43:09.244Z,25.97
2019-02-16T20:46:00.135Z,20.57
2019-02-16T20:48:48.529Z,29.70
2019-02-16T20:51:42.862Z,21.50
2019-02-16T20:54:33.967Z,18.43
2019-02-16T20:57:09.114Z,19.97
2019-02-16T20:59:56.087Z,21.40
2019-02-16T21:02:47.243Z,23.07
2019-02-16T21:05:35.634Z,17.80
2019-02-16T21:08:16.400Z,17.17
2019-02-16T21:11:03.674Z,17.60
2019-02-16T21:13:47.065Z,18.83
2019-02-16T21:16:29.385Z,17.53
2019-02-16T21:19:12.644Z,17.80
2019-02-16T21:21:59.863Z,17.47
2019-02-16T21:24:51.062Z,17.07
2019-02-16T21:27:28.631Z,15.57
2019-02-16T21:30:26.317Z,17.73
2019-02-16T21:33:02.992Z,19.37
2019-02-16T21:35:50.268Z,14.97
2019-02-16T21:38:37.424Z,16.13
2019-02-16T21:41:25.772Z,21.50
2019-02-16T21:44:14.082Z,22.97
2019-02-16T21:47:02.692Z,20.43
2019-02-16T21:49:49.828Z,20.50
2019-02-16T21:52:41.008Z,20.27
2019-02-16T21:55:32.443Z,21.47
2019-02-16T21:58:26.981Z,19.87
2019-02-16T22:01:18.419Z,17.33
2019-02-16T22:04:12.921Z,19.33
2019-02-16T22:07:01.525Z,21.03
2019-02-16T22:09:55.969Z,17.57
2019-02-16T22:12:35.338Z,17.23
2019-02-16T22:15:05.505Z,19.13
2019-02-16T22:17:34.815Z,17.80
2019-02-16T22:20:04.242Z,15.93
2019-02-16T22:22:33.495Z,19.17
2019-02-16T22:25:02.762Z,14.57
2019-02-16T22:27:32.075Z,16.10
2019-02-16T22:30:01.406Z,18.90
2019-02-16T22:32:30.747Z,17.77
2019-02-16T22:35:00.033Z,20.60
2019-02-16T22:37:29.338Z,29.07
2019-02-16T22:39:58.603Z,27.10
2019-02-16T22:42:27.933Z,25.07
2019-02-16T22:44:57.337Z,24.20
2019-02-16T22:47:26.616Z,19.90
2019-02-16T22:49:55.911Z,25.37
2019-02-16T22:52:25.222Z,20.50
2019-02-16T22:54:54.442Z,22.10
2019-02-16T22:57:23.922Z,20.63
2019-02-16T22:59:53.243Z,21.80
2019-02-16T23:02:22.536Z,24.20
2019-02-16T23:04:51.913Z,23.33
2019-02-16T23:07:21.459Z,21.60
2019-02-16T23:09:50.710Z,18.60
2019-02-16T23:12:20.103Z,22.47
2019-02-16T23:14:49.391Z,19.43
2019-02-16T23:17:18.636Z,18.80
2019-02-16T23:19:47.975Z,20.07
2019-02-16T23:22:17.164Z,32.77
2019-02-16T23:24:46.489Z,30.23
2019-02-16T23:27:15.754Z,31.13
2019-02-16T23:29:45.106Z,32.23
2019-02-16T23:32:14.435Z,27.23
2019-02-16T23:34:43.723Z,23.97
2019-02-16T23:37:13.019Z,32.10
2019-02-16T23:39:42.389Z,29.17
2019-02-16T23:42:11.649Z,24.43
2019-02-16T23:44:41.032Z,19.33
2019-02-16T23:47:10.326Z,21.20
2019-02-16T23:49:39.621Z,18.93
2019-02-16T23:52:08.889Z,22.00
2019-02-16T23:54:38.156Z,22.77
2019-02-16T23:57:07.565Z,16.27
2019-02-16T23:59:36.857Z,23.87
